Flight Track Log - Related Links

Times and Time Zones

All times are in EDT time to prevent confusion due to time zone crossing. See the EGF4393 flight status page for this flight to view local times or setup timezone preferences in your user account.

Time Position Orientation Groundspeed Altitude Reporting Facility
EDT Latitude Longitude Course Direction KTS MPH feet Rate Location/Type
Tue 03:43:50 PM 41.9708 -87.9553 346° North 185 213 2,900  Level Chicago Center
Tue 03:44:52 PM 42.0247 -87.9978 330° Northwest 236 272 5,000 2,419 Climbing Chicago Center
Tue 03:45:00 PM 42.2590 -87.9939 350° North  Level FlightAware Approximate
Tue 03:45:54 PM 42.1003 -88.0119 352° North 268 308 7,900  Level Chicago Center
Tue 03:46:00 PM 42.3577 -88.0205 340° North  Level FlightAware Approximate
Tue 03:46:57 PM 42.1847 -88.0028 North 299 344 10,200  Level Chicago Center
Tue 03:47:00 PM 42.4541 -88.0575 352° North  Level FlightAware Approximate
Tue 03:47:58 PM 42.2767 -87.9967 North 327 376 12,400  Level Chicago Center
Tue 03:48:00 PM 42.5494 -88.0942 346° North  Level FlightAware Approximate
Tue 03:49:00 PM 42.6338 -88.1223 346° North  Level FlightAware Approximate
Tue 03:49:00 PM 42.3917 -87.9867 North 349 402 15,300  Level Chicago Center
Tue 03:50:02 PM 42.4886 -88.0050 352° North 357 411 16,900 1,258 Climbing Chicago Center
Tue 03:51:04 PM 42.5897 -88.0469 343° North 378 435 17,900 968 Climbing Chicago Center
Tue 03:52:06 PM 42.6967 -88.0900 344° North 398 458 18,900 1,210 Climbing Chicago Center
Tue 03:53:08 PM 42.8239 -88.1422 343° North 408 470 20,400 1,392 Climbing Chicago Center
Tue 03:54:11 PM 42.9342 -88.1869 343° North 412 474 21,800 768 Climbing Chicago Center
Tue 03:55:13 PM 43.0450 -88.2317 344° North 415 478 22,000 97 Climbing Chicago Center
Tue 03:56:15 PM 43.1578 -88.2764 344° North 420 483 22,000  Level Chicago Center
Tue 03:57:17 PM 43.2706 -88.3217 344° North 423 487 22,000  Level Chicago Center
Tue 03:58:19 PM 43.4022 -88.3756 343° North 426 490 22,000  Level Chicago Center
Tue 03:59:21 PM 43.5119 -88.4214 343° North 426 490 22,000 -677 Level Chicago Center
Tue 04:00:23 PM 43.6233 -88.4667 344° North 425 489 20,600 -1,432 Descending Chicago Center
Tue 04:00:49 PM 43.6783 -88.4897 343° North 422 486 19,900 -1,636 Descending Minneapolis Center
Tue 04:01:51 PM 43.7919 -88.5372 343° North 424 488 18,200 -1,790 Descending Minneapolis Center
Tue 04:02:53 PM 43.9042 -88.5847 343° North 423 487 16,200 -1,984 Descending Minneapolis Center
Tue 04:03:55 PM 44.0311 -88.6381 343° North 410 472 14,100 -1,122 Descending Minneapolis Center
Tue 04:04:56 PM 44.1361 -88.6811 344° North 396 456 13,900 -244 Descending Minneapolis Center
Tue 04:05:58 PM 44.2361 -88.7253 342° North 381 438 13,600 -823 Descending Minneapolis Center
Tue 04:07:00 PM 44.3383 -88.7697 343° North 383 441 12,200 -1,355 Descending Minneapolis Center
Tue 04:08:02 PM 44.4189 -88.8300 332° Northwest 330 380 10,800 -1,366 Descending Minneapolis Center
Tue 04:09:03 PM 44.4717 -88.9089 313° West 283 326 9,400 -1,415 Descending Minneapolis Center
Tue 04:10:05 PM 44.5206 -88.9864 312° West 270 311 7,900 -1,597 Descending Minneapolis Center
Tue 04:11:07 PM 44.5739 -89.0731 311° West 256 295 6,100 -1,306 Descending Minneapolis Center
Tue 04:12:09 PM 44.6106 -89.1583 301° West 249 287 5,200 -1,113 Descending Minneapolis Center
Tue 04:13:11 PM 44.6386 -89.2489 294° West 244 281 3,800 -1,122 Descending Minneapolis Center
Tue 04:14:12 PM 44.6531 -89.3314 284° West 236 272 2,900 -390 Descending Minneapolis Center
Tue 04:15:14 PM 44.6494 -89.4281 267° West 235 270 3,000 97 Climbing Minneapolis Center

Login

Don't have an account? Register now (free) for customized features, flight alerts, and more!